sensor_id;sensor_type;location;lat;lon;timestamp;pressure;altitude;pressure_sealevel;temperature;humidity
62697;BME280;48761;42.680;23.312;2024-02-04T00:01:17;95209.94;;;7.31;67.65
62697;BME280;48761;42.680;23.312;2024-02-04T00:03:43;95206.72;;;7.25;67.66
62697;BME280;48761;42.680;23.312;2024-02-04T00:06:09;95179.28;;;7.10;68.05
62697;BME280;48761;42.680;23.312;2024-02-04T00:08:35;95201.44;;;7.25;68.30
62697;BME280;48761;42.680;23.312;2024-02-04T00:11:00;95197.69;;;7.29;67.97
62697;BME280;48761;42.680;23.312;2024-02-04T00:13:26;95183.47;;;7.14;68.61
62697;BME280;48761;42.680;23.312;2024-02-04T00:15:52;95203.13;;;7.26;68.32
62697;BME280;48761;42.680;23.312;2024-02-04T00:18:18;95208.88;;;7.35;68.13
62697;BME280;48761;42.680;23.312;2024-02-04T00:20:44;95206.78;;;7.24;68.59
62697;BME280;48761;42.680;23.312;2024-02-04T00:23:10;95197.97;;;7.23;68.65
62697;BME280;48761;42.680;23.312;2024-02-04T00:25:36;95206.72;;;7.25;68.62
62697;BME280;48761;42.680;23.312;2024-02-04T00:28:02;95194.56;;;7.21;68.70
62697;BME280;48761;42.680;23.312;2024-02-04T00:30:28;95201.25;;;7.28;68.69
62697;BME280;48761;42.680;23.312;2024-02-04T00:32:53;95163.84;;;7.01;68.82
62697;BME280;48761;42.680;23.312;2024-02-04T00:35:19;95196.44;;;7.19;69.17
62697;BME280;48761;42.680;23.312;2024-02-04T00:37:45;95198.06;;;7.22;69.15
62697;BME280;48761;42.680;23.312;2024-02-04T00:40:11;95196.44;;;7.19;69.60
62697;BME280;48761;42.680;23.312;2024-02-04T00:42:37;95201.44;;;7.25;69.27
62697;BME280;48761;42.680;23.312;2024-02-04T00:45:03;95188.13;;;7.27;69.81
62697;BME280;48761;42.680;23.312;2024-02-04T00:47:29;95184.84;;;7.22;69.62
62697;BME280;48761;42.680;23.312;2024-02-04T00:49:55;95183.84;;;7.24;69.75
62697;BME280;48761;42.680;23.312;2024-02-04T00:52:21;95193.41;;;7.27;70.03
62697;BME280;48761;42.680;23.312;2024-02-04T00:54:47;95167.84;;;7.10;70.06
62697;BME280;48761;42.680;23.312;2024-02-04T00:57:15;95188.97;;;7.27;70.04
62697;BME280;48761;42.680;23.312;2024-02-04T00:59:41;95188.22;;;7.25;70.27
62697;BME280;48761;42.680;23.312;2024-02-04T01:02:07;95194.41;;;7.24;70.17
62697;BME280;48761;42.680;23.312;2024-02-04T01:04:33;95185.78;;;7.21;70.13
62697;BME280;48761;42.680;23.312;2024-02-04T01:06:59;95187.09;;;7.29;70.31
62697;BME280;48761;42.680;23.312;2024-02-04T01:09:25;95184.59;;;7.26;70.74
62697;BME280;48761;42.680;23.312;2024-02-04T01:11:50;95192.41;;;7.29;70.69
62697;BME280;48761;42.680;23.312;2024-02-04T01:14:16;95191.00;;;7.22;71.35
62697;BME280;48761;42.680;23.312;2024-02-04T01:16:42;95196.13;;;7.25;71.44
62697;BME280;48761;42.680;23.312;2024-02-04T01:19:08;95168.59;;;7.12;71.44
62697;BME280;48761;42.680;23.312;2024-02-04T01:21:34;95167.25;;;7.21;71.35
62697;BME280;48761;42.680;23.312;2024-02-04T01:24:01;95192.25;;;7.33;71.58
62697;BME280;48761;42.680;23.312;2024-02-04T01:26:27;95191.28;;;7.34;71.69
62697;BME280;48761;42.680;23.312;2024-02-04T01:28:53;95186.00;;;7.34;71.70
62697;BME280;48761;42.680;23.312;2024-02-04T01:31:19;95172.78;;;7.34;71.61
62697;BME280;48761;42.680;23.312;2024-02-04T01:33:45;95168.13;;;7.21;72.18
62697;BME280;48761;42.680;23.312;2024-02-04T01:36:11;95168.75;;;7.26;72.32
62697;BME280;48761;42.680;23.312;2024-02-04T01:38:37;95145.28;;;7.20;72.16
62697;BME280;48761;42.680;23.312;2024-02-04T01:41:03;95171.25;;;7.29;72.20
62697;BME280;48761;42.680;23.312;2024-02-04T01:43:28;95140.91;;;7.19;72.36
62697;BME280;48761;42.680;23.312;2024-02-04T01:45:55;95161.69;;;7.27;72.67
62697;BME280;48761;42.680;23.312;2024-02-04T01:48:21;95164.22;;;7.28;72.66
62697;BME280;48761;42.680;23.312;2024-02-04T01:50:49;95163.31;;;7.29;72.65
62697;BME280;48761;42.680;23.312;2024-02-04T01:53:17;95170.13;;;7.34;72.84
62697;BME280;48761;42.680;23.312;2024-02-04T01:55:44;95161.03;;;7.39;73.00
62697;BME280;48761;42.680;23.312;2024-02-04T01:58:10;95161.19;;;7.36;72.85
62697;BME280;48761;42.680;23.312;2024-02-04T02:00:36;95153.63;;;7.46;72.95
62697;BME280;48761;42.680;23.312;2024-02-04T02:03:05;95157.13;;;7.47;73.17
62697;BME280;48761;42.680;23.312;2024-02-04T02:05:32;95158.84;;;7.48;73.06
62697;BME280;48761;42.680;23.312;2024-02-04T02:07:58;95157.13;;;7.47;73.20
62697;BME280;48761;42.680;23.312;2024-02-04T02:10:24;95149.59;;;7.39;73.28
62697;BME280;48761;42.680;23.312;2024-02-04T02:13:16;95152.53;;;7.50;73.03
62697;BME280;48761;42.680;23.312;2024-02-04T02:15:47;95158.44;;;7.56;73.10
62697;BME280;48761;42.680;23.312;2024-02-04T02:18:21;95132.03;;;7.38;73.36
62697;BME280;48761;42.680;23.312;2024-02-04T02:23:27;95155.59;;;7.59;73.04
62697;BME280;48761;42.680;23.312;2024-02-04T02:25:56;95122.97;;;7.42;72.82
62697;BME280;48761;42.680;23.312;2024-02-04T02:28:22;95146.59;;;7.63;72.40
62697;BME280;48761;42.680;23.312;2024-02-04T02:30:48;95148.78;;;7.55;73.05
62697;BME280;48761;42.680;23.312;2024-02-04T02:33:13;95153.56;;;7.64;72.67
62697;BME280;48761;42.680;23.312;2024-02-04T02:35:39;95143.50;;;7.55;72.80
62697;BME280;48761;42.680;23.312;2024-02-04T02:38:43;95148.44;;;7.61;72.97
62697;BME280;48761;42.680;23.312;2024-02-04T02:41:12;95146.75;;;7.60;72.91
62697;BME280;48761;42.680;23.312;2024-02-04T02:43:40;95119.69;;;7.55;72.40
62697;BME280;48761;42.680;23.312;2024-02-04T02:46:08;95141.19;;;7.65;72.43
62697;BME280;48761;42.680;23.312;2024-02-04T02:48:35;95121.97;;;7.61;71.97
62697;BME280;48761;42.680;23.312;2024-02-04T02:51:01;95113.63;;;7.53;71.98
62697;BME280;48761;42.680;23.312;2024-02-04T02:53:27;95117.19;;;7.51;72.14
62697;BME280;48761;42.680;23.312;2024-02-04T02:55:52;95131.78;;;7.59;72.34
62697;BME280;48761;42.680;23.312;2024-02-04T02:58:18;95139.06;;;7.71;71.94
62697;BME280;48761;42.680;23.312;2024-02-04T03:00:44;95140.44;;;7.62;71.90
62697;BME280;48761;42.680;23.312;2024-02-04T03:03:10;95131.38;;;7.67;71.72
62697;BME280;48761;42.680;23.312;2024-02-04T03:05:36;95132.56;;;7.61;71.80
62697;BME280;48761;42.680;23.312;2024-02-04T03:08:02;95131.75;;;7.77;71.05
62697;BME280;48761;42.680;23.312;2024-02-04T03:10:28;95131.72;;;7.60;71.67
62697;BME280;48761;42.680;23.312;2024-02-04T03:12:54;95096.28;;;7.47;71.73
62697;BME280;48761;42.680;23.312;2024-02-04T03:15:20;95133.47;;;7.78;71.34
62697;BME280;48761;42.680;23.312;2024-02-04T03:17:46;95124.22;;;7.69;71.81
62697;BME280;48761;42.680;23.312;2024-02-04T03:20:29;95081.44;;;7.44;71.97
62697;BME280;48761;42.680;23.312;2024-02-04T03:22:56;95121.16;;;7.77;71.82
62697;BME280;48761;42.680;23.312;2024-02-04T03:25:22;95121.16;;;7.77;71.71
62697;BME280;48761;42.680;23.312;2024-02-04T03:27:48;95109.97;;;7.71;71.71
62697;BME280;48761;42.680;23.312;2024-02-04T03:30:14;95120.66;;;7.86;71.68
62697;BME280;48761;42.680;23.312;2024-02-04T03:32:40;95121.50;;;7.87;71.49
62697;BME280;48761;42.680;23.312;2024-02-04T03:35:06;95109.38;;;7.82;71.49
62697;BME280;48761;42.680;23.312;2024-02-04T03:37:32;95094.00;;;7.73;71.62
62697;BME280;48761;42.680;23.312;2024-02-04T03:39:58;95070.94;;;7.59;71.76
62697;BME280;48761;42.680;23.312;2024-02-04T03:42:24;95088.38;;;7.63;71.98
62697;BME280;48761;42.680;23.312;2024-02-04T03:44:50;95095.03;;;7.70;72.01
62697;BME280;48761;42.680;23.312;2024-02-04T03:47:16;95079.75;;;7.76;72.00
62697;BME280;48761;42.680;23.312;2024-02-04T03:49:41;95086.84;;;7.75;71.96
62697;BME280;48761;42.680;23.312;2024-02-04T03:52:07;95085.13;;;7.74;71.73
62697;BME280;48761;42.680;23.312;2024-02-04T03:54:33;95086.69;;;7.78;71.96
62697;BME280;48761;42.680;23.312;2024-02-04T03:56:59;95048.41;;;7.51;72.43
62697;BME280;48761;42.680;23.312;2024-02-04T03:59:25;95091.78;;;7.65;72.59
62697;BME280;48761;42.680;23.312;2024-02-04T04:01:51;95105.22;;;7.78;72.33
62697;BME280;48761;42.680;23.312;2024-02-04T04:04:17;95081.19;;;7.65;72.35
62697;BME280;48761;42.680;23.312;2024-02-04T04:06:44;95099.63;;;7.67;73.20
62697;BME280;48761;42.680;23.312;2024-02-04T04:09:11;95118.59;;;7.75;72.91
62697;BME280;48761;42.680;23.312;2024-02-04T04:11:37;95089.91;;;7.67;73.31
62697;BME280;48761;42.680;23.312;2024-02-04T04:14:03;95105.03;;;7.65;73.68
62697;BME280;48761;42.680;23.312;2024-02-04T04:16:29;95101.19;;;7.71;73.55
62697;BME280;48761;42.680;23.312;2024-02-04T04:18:55;95099.06;;;7.78;73.66
62697;BME280;48761;42.680;23.312;2024-02-04T04:21:21;95103.38;;;7.79;73.47
62697;BME280;48761;42.680;23.312;2024-02-04T04:23:46;95068.75;;;7.67;73.46
62697;BME280;48761;42.680;23.312;2024-02-04T04:26:12;95098.09;;;7.79;73.64
62697;BME280;48761;42.680;23.312;2024-02-04T04:28:38;95096.41;;;7.78;73.24
62697;BME280;48761;42.680;23.312;2024-02-04T04:31:04;95105.72;;;7.85;73.11
62697;BME280;48761;42.680;23.312;2024-02-04T04:33:30;95087.88;;;7.72;73.29
62697;BME280;48761;42.680;23.312;2024-02-04T04:35:56;95106.63;;;7.84;73.15
62697;BME280;48761;42.680;23.312;2024-02-04T04:38:22;95084.63;;;7.67;73.23
62697;BME280;48761;42.680;23.312;2024-02-04T04:40:48;95096.72;;;7.71;73.47
62697;BME280;48761;42.680;23.312;2024-02-04T04:43:14;95106.31;;;7.90;73.56
62697;BME280;48761;42.680;23.312;2024-02-04T04:45:40;95102.91;;;7.88;73.60
62697;BME280;48761;42.680;23.312;2024-02-04T04:48:06;95078.03;;;7.74;73.78
62697;BME280;48761;42.680;23.312;2024-02-04T04:50:32;95098.22;;;7.93;73.81
62697;BME280;48761;42.680;23.312;2024-02-04T04:52:58;95106.06;;;7.95;73.86
62697;BME280;48761;42.680;23.312;2024-02-04T04:55:24;95109.56;;;7.95;74.05
62697;BME280;48761;42.680;23.312;2024-02-04T04:57:50;95115.69;;;8.12;73.16
62697;BME280;48761;42.680;23.312;2024-02-04T05:00:16;95082.41;;;7.92;73.22
62697;BME280;48761;42.680;23.312;2024-02-04T05:02:43;95114.00;;;8.11;73.00
62697;BME280;48761;42.680;23.312;2024-02-04T05:05:10;95102.06;;;8.04;73.28
62697;BME280;48761;42.680;23.312;2024-02-04T05:07:36;95098.28;;;8.08;72.44
62697;BME280;48761;42.680;23.312;2024-02-04T05:10:02;95105.88;;;8.14;72.94
62697;BME280;48761;42.680;23.312;2024-02-04T05:12:28;95087.00;;;8.04;72.69
62697;BME280;48761;42.680;23.312;2024-02-04T05:14:54;95080.06;;;8.02;73.03
62697;BME280;48761;42.680;23.312;2024-02-04T05:17:20;95105.28;;;8.09;73.12
62697;BME280;48761;42.680;23.312;2024-02-04T05:19:46;95105.09;;;8.12;73.34
62697;BME280;48761;42.680;23.312;2024-02-04T05:22:12;95108.19;;;8.21;72.48
62697;BME280;48761;42.680;23.312;2024-02-04T05:24:38;95109.72;;;8.09;72.95
62697;BME280;48761;42.680;23.312;2024-02-04T05:27:04;95104.94;;;8.15;72.78
62697;BME280;48761;42.680;23.312;2024-02-04T05:29:31;95102.44;;;8.12;72.56
62697;BME280;48761;42.680;23.312;2024-02-04T05:31:57;95110.34;;;8.14;72.82
62697;BME280;48761;42.680;23.312;2024-02-04T05:34:23;95093.31;;;8.02;73.05
62697;BME280;48761;42.680;23.312;2024-02-04T05:36:48;95114.84;;;8.12;72.71
62697;BME280;48761;42.680;23.312;2024-02-04T05:39:15;95112.38;;;8.09;72.85
62697;BME280;48761;42.680;23.312;2024-02-04T05:41:42;95103.16;;;8.16;71.99
62697;BME280;48761;42.680;23.312;2024-02-04T05:44:08;95109.09;;;8.19;72.00
62697;BME280;48761;42.680;23.312;2024-02-04T05:46:35;95118.78;;;8.21;71.92
62697;BME280;48761;42.680;23.312;2024-02-04T05:49:01;95113.75;;;8.16;71.01
62697;BME280;48761;42.680;23.312;2024-02-04T05:51:27;95113.81;;;8.14;71.05
62697;BME280;48761;42.680;23.312;2024-02-04T05:53:53;95108.72;;;8.11;70.73
62697;BME280;48761;42.680;23.312;2024-02-04T05:56:19;95119.63;;;8.05;71.06
62697;BME280;48761;42.680;23.312;2024-02-04T05:58:45;95126.44;;;8.09;70.75
62697;BME280;48761;42.680;23.312;2024-02-04T06:01:11;95118.28;;;8.14;70.18
62697;BME280;48761;42.680;23.312;2024-02-04T06:03:37;95105.78;;;8.00;70.17
62697;BME280;48761;42.680;23.312;2024-02-04T06:06:03;95133.47;;;8.10;70.55
62697;BME280;48761;42.680;23.312;2024-02-04T06:08:29;95123.75;;;8.11;70.29
62697;BME280;48761;42.680;23.312;2024-02-04T06:10:55;95138.94;;;8.07;70.39
62697;BME280;48761;42.680;23.312;2024-02-04T06:13:21;95137.03;;;8.09;70.51
62697;BME280;48761;42.680;23.312;2024-02-04T06:15:47;95138.44;;;8.16;70.51
62697;BME280;48761;42.680;23.312;2024-02-04T06:18:13;95137.75;;;8.13;70.61
62697;BME280;48761;42.680;23.312;2024-02-04T06:20:38;95144.81;;;8.12;70.65
62697;BME280;48761;42.680;23.312;2024-02-04T06:23:06;95149.97;;;8.15;70.41
62697;BME280;48761;42.680;23.312;2024-02-04T06:25:32;95154.13;;;8.19;70.03
62697;BME280;48761;42.680;23.312;2024-02-04T06:27:58;95146.44;;;8.15;69.51
62697;BME280;48761;42.680;23.312;2024-02-04T06:30:24;95169.69;;;8.26;69.61
62697;BME280;48761;42.680;23.312;2024-02-04T06:32:49;95160.44;;;8.17;69.70
62697;BME280;48761;42.680;23.312;2024-02-04T06:35:16;95162.44;;;8.13;70.23
62697;BME280;48761;42.680;23.312;2024-02-04T06:37:41;95183.00;;;8.40;69.68
62697;BME280;48761;42.680;23.312;2024-02-04T06:40:08;95171.38;;;8.27;70.10
62697;BME280;48761;42.680;23.312;2024-02-04T06:42:34;95167.66;;;8.31;70.07
62697;BME280;48761;42.680;23.312;2024-02-04T06:45:00;95178.03;;;8.34;70.07
62697;BME280;48761;42.680;23.312;2024-02-04T06:47:26;95185.94;;;8.36;69.92
62697;BME280;48761;42.680;23.312;2024-02-04T06:49:52;95182.31;;;8.37;70.29
62697;BME280;48761;42.680;23.312;2024-02-04T06:52:18;95148.91;;;8.34;69.77
62697;BME280;48761;42.680;23.312;2024-02-04T06:54:44;95171.03;;;8.49;69.95
62697;BME280;48761;42.680;23.312;2024-02-04T06:57:09;95181.16;;;8.59;69.56
62697;BME280;48761;42.680;23.312;2024-02-04T06:59:35;95182.31;;;8.53;69.63
62697;BME280;48761;42.680;23.312;2024-02-04T07:02:01;95178.75;;;8.54;69.31
62697;BME280;48761;42.680;23.312;2024-02-04T07:04:27;95194.81;;;8.51;69.70
62697;BME280;48761;42.680;23.312;2024-02-04T07:06:53;95178.16;;;8.49;69.79
62697;BME280;48761;42.680;23.312;2024-02-04T07:09:19;95181.56;;;8.51;69.93
62697;BME280;48761;42.680;23.312;2024-02-04T07:11:45;95178.75;;;8.54;69.82
62697;BME280;48761;42.680;23.312;2024-02-04T07:14:11;95176.72;;;8.59;69.68
62697;BME280;48761;42.680;23.312;2024-02-04T07:16:37;95181.44;;;8.85;69.46
62697;BME280;48761;42.680;23.312;2024-02-04T07:19:03;95183.41;;;8.81;69.09
62697;BME280;48761;42.680;23.312;2024-02-04T07:21:28;95188.47;;;8.70;69.45
62697;BME280;48761;42.680;23.312;2024-02-04T07:23:54;95162.34;;;8.63;69.21
62697;BME280;48761;42.680;23.312;2024-02-04T07:26:20;95177.38;;;8.79;69.37
62697;BME280;48761;42.680;23.312;2024-02-04T07:28:46;95189.47;;;8.83;69.21
62697;BME280;48761;42.680;23.312;2024-02-04T07:31:12;95187.25;;;8.92;69.35
62697;BME280;48761;42.680;23.312;2024-02-04T07:33:38;95165.44;;;8.87;68.46
62697;BME280;48761;42.680;23.312;2024-02-04T07:36:04;95183.16;;;8.86;69.15
62697;BME280;48761;42.680;23.312;2024-02-04T07:38:30;95178.78;;;8.85;69.00
62697;BME280;48761;42.680;23.312;2024-02-04T07:40:56;95172.88;;;8.80;68.77
62697;BME280;48761;42.680;23.312;2024-02-04T07:43:22;95181.75;;;8.95;68.22
62697;BME280;48761;42.680;23.312;2024-02-04T07:45:48;95183.63;;;8.93;68.32
62697;BME280;48761;42.680;23.312;2024-02-04T07:48:14;95196.63;;;8.97;67.72
62697;BME280;48761;42.680;23.312;2024-02-04T07:50:40;95178.75;;;9.01;67.37
62697;BME280;48761;42.680;23.312;2024-02-04T07:53:06;95190.13;;;9.03;67.35
62697;BME280;48761;42.680;23.312;2024-02-04T07:55:31;95191.25;;;9.30;66.67
62697;BME280;48761;42.680;23.312;2024-02-04T07:57:57;95178.47;;;9.51;65.59
62697;BME280;48761;42.680;23.312;2024-02-04T08:00:23;95190.81;;;9.82;64.99
62697;BME280;48761;42.680;23.312;2024-02-04T08:02:49;95192.69;;;10.09;63.54
62697;BME280;48761;42.680;23.312;2024-02-04T08:05:15;95180.31;;;10.37;62.54
62697;BME280;48761;42.680;23.312;2024-02-04T08:07:41;95190.78;;;10.26;62.75
62697;BME280;48761;42.680;23.312;2024-02-04T08:10:07;95190.44;;;10.03;62.91
62697;BME280;48761;42.680;23.312;2024-02-04T08:12:33;95181.63;;;9.88;62.95
62697;BME280;48761;42.680;23.312;2024-02-04T08:14:59;95167.47;;;9.87;63.00
62697;BME280;48761;42.680;23.312;2024-02-04T08:17:25;95188.31;;;10.23;62.88
62697;BME280;48761;42.680;23.312;2024-02-04T08:19:51;95157.50;;;10.48;61.52
62697;BME280;48761;42.680;23.312;2024-02-04T08:22:17;95183.41;;;10.86;60.19
62697;BME280;48761;42.680;23.312;2024-02-04T08:24:43;95184.16;;;10.89;60.29
62697;BME280;48761;42.680;23.312;2024-02-04T08:27:09;95184.44;;;11.12;59.08
62697;BME280;48761;42.680;23.312;2024-02-04T08:29:35;95143.31;;;10.90;59.00
62697;BME280;48761;42.680;23.312;2024-02-04T08:32:01;95173.91;;;10.69;59.92
62697;BME280;48761;42.680;23.312;2024-02-04T08:34:27;95158.66;;;10.43;60.38
62697;BME280;48761;42.680;23.312;2024-02-04T08:36:56;95171.44;;;10.09;61.67
62697;BME280;48761;42.680;23.312;2024-02-04T08:39:22;95166.28;;;10.35;60.90
62697;BME280;48761;42.680;23.312;2024-02-04T08:41:47;95159.47;;;10.16;61.74
62697;BME280;48761;42.680;23.312;2024-02-04T08:44:15;95152.84;;;10.09;61.36
62697;BME280;48761;42.680;23.312;2024-02-04T08:46:41;95158.00;;;9.97;61.48
62697;BME280;48761;42.680;23.312;2024-02-04T08:49:07;95178.91;;;10.17;60.85
62697;BME280;48761;42.680;23.312;2024-02-04T08:51:33;95162.91;;;10.04;61.36
62697;BME280;48761;42.680;23.312;2024-02-04T08:53:59;95183.59;;;10.13;61.44
62697;BME280;48761;42.680;23.312;2024-02-04T08:56:24;95173.16;;;9.95;61.90
62697;BME280;48761;42.680;23.312;2024-02-04T08:58:50;95179.06;;;10.01;62.20
62697;BME280;48761;42.680;23.312;2024-02-04T09:01:16;95172.22;;;9.96;62.15
62697;BME280;48761;42.680;23.312;2024-02-04T09:03:42;95178.84;;;9.89;62.50
62697;BME280;48761;42.680;23.312;2024-02-04T09:06:08;95181.50;;;9.89;62.62
62697;BME280;48761;42.680;23.312;2024-02-04T09:08:34;95200.47;;;9.97;62.39
62697;BME280;48761;42.680;23.312;2024-02-04T09:11:00;95182.94;;;9.80;62.93
62697;BME280;48761;42.680;23.312;2024-02-04T09:13:26;95202.38;;;9.95;62.40
62697;BME280;48761;42.680;23.312;2024-02-04T09:15:52;95199.75;;;9.81;63.11
62697;BME280;48761;42.680;23.312;2024-02-04T09:18:17;95179.22;;;9.68;62.86
62697;BME280;48761;42.680;23.312;2024-02-04T09:20:43;95203.16;;;9.83;62.93
62697;BME280;48761;42.680;23.312;2024-02-04T09:23:09;95207.19;;;9.74;63.14
62697;BME280;48761;42.680;23.312;2024-02-04T09:25:35;95205.59;;;9.71;63.43
62697;BME280;48761;42.680;23.312;2024-02-04T09:28:01;95226.81;;;9.71;63.59
62697;BME280;48761;42.680;23.312;2024-02-04T09:30:27;95240.69;;;9.77;63.73
62697;BME280;48761;42.680;23.312;2024-02-04T09:32:53;95232.31;;;9.68;64.11
62697;BME280;48761;42.680;23.312;2024-02-04T09:35:19;95245.06;;;9.92;64.02
62697;BME280;48761;42.680;23.312;2024-02-04T09:37:44;95230.63;;;9.96;64.35
62697;BME280;48761;42.680;23.312;2024-02-04T09:40:11;95219.25;;;10.09;63.69
62697;BME280;48761;42.680;23.312;2024-02-04T09:42:37;95218.22;;;10.26;63.72
62697;BME280;48761;42.680;23.312;2024-02-04T09:45:03;95212.56;;;10.46;63.31
62697;BME280;48761;42.680;23.312;2024-02-04T09:47:30;95207.91;;;10.92;61.93
62697;BME280;48761;42.680;23.312;2024-02-04T09:50:00;95204.59;;;10.88;61.74
62697;BME280;48761;42.680;23.312;2024-02-04T09:52:29;95217.28;;;10.70;62.11
62697;BME280;48761;42.680;23.312;2024-02-04T09:54:59;95218.44;;;10.93;62.01
62697;BME280;48761;42.680;23.312;2024-02-04T09:57:25;95198.75;;;11.63;60.06
62697;BME280;48761;42.680;23.312;2024-02-04T09:59:51;95188.22;;;11.48;60.36
62697;BME280;48761;42.680;23.312;2024-02-04T10:02:17;95185.16;;;11.68;59.63
62697;BME280;48761;42.680;23.312;2024-02-04T10:04:43;95195.75;;;11.28;60.77
62697;BME280;48761;42.680;23.312;2024-02-04T10:07:09;95182.94;;;11.07;61.66
62697;BME280;48761;42.680;23.312;2024-02-04T10:09:35;95200.81;;;11.05;61.93
62697;BME280;48761;42.680;23.312;2024-02-04T10:12:00;95207.81;;;11.47;61.20
62697;BME280;48761;42.680;23.312;2024-02-04T10:14:26;95195.94;;;11.25;61.93
62697;BME280;48761;42.680;23.312;2024-02-04T10:16:52;95197.66;;;10.85;62.81
62697;BME280;48761;42.680;23.312;2024-02-04T10:19:18;95195.66;;;10.89;62.80
62697;BME280;48761;42.680;23.312;2024-02-04T10:21:44;95211.56;;;10.76;63.92
62697;BME280;48761;42.680;23.312;2024-02-04T10:24:10;95226.91;;;10.85;63.65
62697;BME280;48761;42.680;23.312;2024-02-04T10:26:36;95213.50;;;10.87;63.94
62697;BME280;48761;42.680;23.312;2024-02-04T10:29:02;95210.09;;;10.85;64.05
62697;BME280;48761;42.680;23.312;2024-02-04T10:31:28;95209.34;;;10.83;63.98
62697;BME280;48761;42.680;23.312;2024-02-04T10:33:55;95208.16;;;10.74;64.23
62697;BME280;48761;42.680;23.312;2024-02-04T10:36:21;95186.16;;;10.57;64.70
62697;BME280;48761;42.680;23.312;2024-02-04T10:38:48;95206.63;;;10.70;64.86
62697;BME280;48761;42.680;23.312;2024-02-04T10:41:17;95194.44;;;10.52;65.18
62697;BME280;48761;42.680;23.312;2024-02-04T10:43:44;95198.09;;;10.64;65.21
62697;BME280;48761;42.680;23.312;2024-02-04T10:46:13;95209.72;;;10.49;65.75
62697;BME280;48761;42.680;23.312;2024-02-04T10:48:43;95199.28;;;10.46;65.82
62697;BME280;48761;42.680;23.312;2024-02-04T10:51:15;95199.88;;;10.51;65.82
62697;BME280;48761;42.680;23.312;2024-02-04T10:53:42;95197.97;;;10.53;65.59
62697;BME280;48761;42.680;23.312;2024-02-04T10:56:55;95200.13;;;10.46;65.58
62697;BME280;48761;42.680;23.312;2024-02-04T10:58:59;95204.59;;;10.60;66.05
62697;BME280;48761;42.680;23.312;2024-02-04T11:01:27;95204.91;;;11.24;72.14
62697;BME280;48761;42.680;23.312;2024-02-04T11:03:54;95172.22;;;11.22;66.33
62697;BME280;48761;42.680;23.312;2024-02-04T11:06:20;95197.22;;;11.32;65.77
62697;BME280;48761;42.680;23.312;2024-02-04T11:08:48;95201.00;;;11.30;69.26
62697;BME280;48761;42.680;23.312;2024-02-04T11:11:13;95197.09;;;10.80;65.09
62697;BME280;48761;42.680;23.312;2024-02-04T11:13:43;95177.25;;;10.58;65.08
62697;BME280;48761;42.680;23.312;2024-02-04T11:22:17;95191.25;;;10.75;64.95
62697;BME280;48761;42.680;23.312;2024-02-04T11:25:09;95176.03;;;10.77;64.81
62697;BME280;48761;42.680;23.312;2024-02-04T11:27:40;95167.25;;;10.62;65.02
62697;BME280;48761;42.680;23.312;2024-02-04T11:30:07;95169.41;;;10.70;65.21
62697;BME280;48761;42.680;23.312;2024-02-04T11:32:35;95164.31;;;10.67;65.26
62697;BME280;48761;42.680;23.312;2024-02-04T11:35:02;95174.34;;;10.76;64.84
62697;BME280;48761;42.680;23.312;2024-02-04T11:37:28;95173.69;;;10.72;64.49
62697;BME280;48761;42.680;23.312;2024-02-04T11:39:56;95172.06;;;10.70;64.68
62697;BME280;48761;42.680;23.312;2024-02-04T11:42:23;95173.47;;;10.75;64.41
62697;BME280;48761;42.680;23.312;2024-02-04T11:44:50;95157.09;;;10.69;64.40
62697;BME280;48761;42.680;23.312;2024-02-04T11:47:26;95156.22;;;10.68;64.55
62697;BME280;48761;42.680;23.312;2024-02-04T11:49:58;95158.75;;;10.84;64.20
62697;BME280;48761;42.680;23.312;2024-02-04T11:52:27;95136.75;;;11.08;63.65
62697;BME280;48761;42.680;23.312;2024-02-04T11:54:53;95131.56;;;11.59;62.21
62697;BME280;48761;42.680;23.312;2024-02-04T11:57:20;95125.25;;;11.73;61.62
62697;BME280;48761;42.680;23.312;2024-02-04T11:59:46;95092.66;;;11.83;60.75
62697;BME280;48761;42.680;23.312;2024-02-04T12:02:16;95095.63;;;11.91;59.60
62697;BME280;48761;42.680;23.312;2024-02-04T12:04:46;95109.47;;;11.96;60.00
62697;BME280;48761;42.680;23.312;2024-02-04T12:07:14;95100.06;;;12.04;59.02
62697;BME280;48761;42.680;23.312;2024-02-04T12:09:41;95091.53;;;11.98;58.91
62697;BME280;48761;42.680;23.312;2024-02-04T12:12:07;95116.19;;;11.89;59.51
62697;BME280;48761;42.680;23.312;2024-02-04T12:14:35;95115.25;;;11.90;59.58
62697;BME280;48761;42.680;23.312;2024-02-04T12:17:10;95108.66;;;11.70;60.22
62697;BME280;48761;42.680;23.312;2024-02-04T12:19:37;95116.19;;;11.89;60.03
62697;BME280;48761;42.680;23.312;2024-02-04T12:22:03;95104.63;;;12.28;58.96
62697;BME280;48761;42.680;23.312;2024-02-04T12:24:29;95086.13;;;12.13;58.71
62697;BME280;48761;42.680;23.312;2024-02-04T12:26:55;95111.56;;;12.17;58.69
62697;BME280;48761;42.680;23.312;2024-02-04T12:29:21;95101.94;;;12.28;58.17
62697;BME280;48761;42.680;23.312;2024-02-04T12:31:47;95108.34;;;12.12;58.78
62697;BME280;48761;42.680;23.312;2024-02-04T12:34:13;95091.34;;;12.15;58.01
62697;BME280;48761;42.680;23.312;2024-02-04T12:36:39;95099.34;;;12.39;58.32
62697;BME280;48761;42.680;23.312;2024-02-04T12:39:05;95107.47;;;12.38;57.35
62697;BME280;48761;42.680;23.312;2024-02-04T12:41:30;95060.00;;;12.05;57.64
62697;BME280;48761;42.680;23.312;2024-02-04T12:43:58;95090.03;;;12.07;57.78
62697;BME280;48761;42.680;23.312;2024-02-04T12:46:24;95087.88;;;11.88;57.83
62697;BME280;48761;42.680;23.312;2024-02-04T12:48:51;95090.75;;;11.85;57.88
62697;BME280;48761;42.680;23.312;2024-02-04T12:51:27;95112.94;;;11.72;58.46
62697;BME280;48761;42.680;23.312;2024-02-04T12:54:10;95103.34;;;11.57;59.02
62697;BME280;48761;42.680;23.312;2024-02-04T12:56:49;95101.00;;;11.52;59.51
62697;BME280;48761;42.680;23.312;2024-02-04T12:59:29;95083.53;;;11.48;59.72
62697;BME280;48761;42.680;23.312;2024-02-04T13:01:58;95067.81;;;11.31;59.80
62697;BME280;48761;42.680;23.312;2024-02-04T13:04:24;95081.66;;;11.37;59.54